Time;durP1;ratioP1;P1;durP2;ratioP2;P2;SDS_P1;SDS_P2;PMS_P1;PMS_P2;Temp;Humidity;BMP_temperature;BMP_pressure;BME280_temperature;BME280_humidity;BME280_pressure;Samples;Min_cycle;Max_cycle;Signal;HPM_P1;HPM_P2
2022/09/21 00:01:15;;;;;;;2.07;1.20;;;;;;;;;;5077359;28;20931;-74
2022/09/21 00:03:43;;;;;;;2.37;1.40;;;;;;;;;;5075656;28;20455;-74
2022/09/21 00:06:11;;;;;;;3.53;1.60;;;;;;;;;;5074378;28;20456;-74
2022/09/21 00:08:38;;;;;;;4.27;1.50;;;;;;;;;;5074207;28;20452;-74
2022/09/21 00:11:07;;;;;;;3.60;2.07;;;;;;;;;;5074351;28;20455;-74
2022/09/21 00:13:36;;;;;;;3.13;1.50;;;;;;;;;;5073963;28;20448;-73
2022/09/21 00:16:05;;;;;;;1.60;1.27;;;;;;;;;;5073643;28;20962;-74
2022/09/21 00:18:33;;;;;;;2.27;2.00;;;;;;;;;;5073377;28;20475;-74
2022/09/21 00:21:00;;;;;;;3.73;2.20;;;;;;;;;;5073907;28;20483;-74
2022/09/21 00:23:27;;;;;;;2.60;1.80;;;;;;;;;;5073414;28;20451;-74
2022/09/21 00:26:04;;;;;;;2.70;1.70;;;;;;;;;;5073291;28;20454;-74
2022/09/21 00:28:32;;;;;;;2.10;1.60;;;;;;;;;;5072828;28;20818;-74
2022/09/21 00:31:02;;;;;;;2.80;1.90;;;;;;;;;;5073839;28;20454;-75
2022/09/21 00:33:29;;;;;;;2.57;1.47;;;;;;;;;;5073054;28;20504;-75
2022/09/21 00:35:56;;;;;;;5.60;2.23;;;;;;;;;;5073213;28;20951;-75
2022/09/21 00:38:23;;;;;;;2.40;1.53;;;;;;;;;;5072433;28;20457;-74
2022/09/21 00:40:50;;;;;;;2.40;1.90;;;;;;;;;;5073350;28;20494;-75
2022/09/21 00:43:17;;;;;;;2.07;1.70;;;;;;;;;;5072955;28;20785;-73
2022/09/21 00:45:47;;;;;;;4.20;1.70;;;;;;;;;;5073276;28;20643;-75
2022/09/21 00:48:15;;;;;;;2.13;1.60;;;;;;;;;;5073265;28;20454;-75
2022/09/21 00:50:45;;;;;;;3.73;1.70;;;;;;;;;;5073700;28;20516;-75
2022/09/21 00:53:12;;;;;;;2.80;1.90;;;;;;;;;;5073475;28;20446;-75
2022/09/21 00:55:41;;;;;;;4.70;2.00;;;;;;;;;;5071968;28;20459;-75
2022/09/21 00:58:10;;;;;;;2.77;1.43;;;;;;;;;;5071562;28;20556;-75
2022/09/21 01:00:39;;;;;;;3.30;1.60;;;;;;;;;;5072375;28;20858;-74
2022/09/21 01:03:09;;;;;;;2.40;1.63;;;;;;;;;;5072786;28;20451;-74
2022/09/21 01:05:36;;;;;;;2.70;1.60;;;;;;;;;;5071798;28;20480;-75
2022/09/21 01:08:04;;;;;;;2.20;1.93;;;;;;;;;;5072840;28;20782;-74
2022/09/21 01:10:33;;;;;;;2.90;1.70;;;;;;;;;;5072375;28;20455;-75
2022/09/21 01:13:05;;;;;;;3.03;1.70;;;;;;;;;;5072755;28;20454;-74
2022/09/21 01:15:37;;;;;;;3.87;1.67;;;;;;;;;;5071683;28;20451;-74
2022/09/21 01:18:09;;;;;;;1.90;1.73;;;;;;;;;;5072518;28;20446;-74
2022/09/21 01:20:55;;;;;;;2.73;1.50;;;;;;;;;;5071666;28;20990;-75
2022/09/21 01:23:36;;;;;;;2.53;1.37;;;;;;;;;;5066033;28;20932;-74
2022/09/21 01:26:10;;;;;;;4.97;1.63;;;;;;;;;;5072295;28;20462;-74
2022/09/21 01:28:48;;;;;;;5.00;2.53;;;;;;;;;;5071820;28;20757;-74
2022/09/21 01:31:18;;;;;;;5.00;1.80;;;;;;;;;;5072597;28;20458;-74
2022/09/21 01:33:48;;;;;;;2.60;2.10;;;;;;;;;;5072489;28;20475;-74
2022/09/21 01:36:17;;;;;;;1.87;1.37;;;;;;;;;;5072505;28;20810;-74
2022/09/21 01:38:46;;;;;;;4.30;1.20;;;;;;;;;;5072128;28;20477;-75
2022/09/21 01:41:14;;;;;;;1.87;1.23;;;;;;;;;;5072271;28;20489;-74
2022/09/21 01:43:43;;;;;;;2.63;2.10;;;;;;;;;;5071729;28;20448;-74
2022/09/21 01:46:16;;;;;;;2.93;1.50;;;;;;;;;;5071914;28;20453;-74
2022/09/21 01:48:46;;;;;;;2.03;1.67;;;;;;;;;;5071623;28;20463;-74
2022/09/21 01:51:14;;;;;;;2.57;1.37;;;;;;;;;;5072500;28;20946;-74
2022/09/21 01:53:43;;;;;;;2.20;1.47;;;;;;;;;;5072587;28;20490;-74
2022/09/21 01:56:12;;;;;;;2.87;2.17;;;;;;;;;;5071802;28;20468;-74
2022/09/21 01:58:42;;;;;;;1.70;1.30;;;;;;;;;;5071055;28;20449;-73
2022/09/21 02:01:12;;;;;;;3.07;2.10;;;;;;;;;;5071864;28;20481;-74
2022/09/21 02:03:42;;;;;;;2.70;1.70;;;;;;;;;;5070573;28;20453;-73
2022/09/21 02:06:10;;;;;;;2.47;1.60;;;;;;;;;;5071464;28;20473;-73
2022/09/21 02:08:37;;;;;;;3.97;1.50;;;;;;;;;;5071112;28;20937;-74
2022/09/21 02:11:05;;;;;;;2.70;1.60;;;;;;;;;;5071001;28;20968;-74
2022/09/21 02:13:34;;;;;;;3.10;1.40;;;;;;;;;;5071389;28;20445;-74
2022/09/21 02:16:11;;;;;;;2.60;1.80;;;;;;;;;;5071112;28;20457;-74
2022/09/21 02:18:44;;;;;;;2.73;1.90;;;;;;;;;;5070687;28;20519;-74
2022/09/21 02:21:17;;;;;;;4.40;2.00;;;;;;;;;;5071308;28;20968;-74
2022/09/21 02:23:49;;;;;;;3.50;2.37;;;;;;;;;;5071527;28;20967;-75
2022/09/21 02:26:19;;;;;;;3.10;1.90;;;;;;;;;;5070835;28;20456;-74
2022/09/21 02:28:49;;;;;;;1.77;1.40;;;;;;;;;;5070199;28;20972;-74
2022/09/21 02:31:21;;;;;;;2.40;1.73;;;;;;;;;;5070704;28;20971;-71
2022/09/21 02:33:56;;;;;;;2.27;1.40;;;;;;;;;;5071351;28;20502;-73
2022/09/21 02:36:29;;;;;;;2.00;1.57;;;;;;;;;;5064460;28;20502;-73
2022/09/21 02:39:04;;;;;;;3.83;1.77;;;;;;;;;;5070756;28;20532;-74
2022/09/21 02:41:36;;;;;;;2.40;1.30;;;;;;;;;;5070690;28;20476;-74
2022/09/21 02:44:05;;;;;;;2.13;1.30;;;;;;;;;;5071054;28;20787;-73
2022/09/21 02:46:35;;;;;;;5.27;2.60;;;;;;;;;;5070251;28;20449;-73
2022/09/21 02:49:08;;;;;;;5.20;1.90;;;;;;;;;;5062427;28;20453;-74
2022/09/21 02:51:37;;;;;;;3.67;1.80;;;;;;;;;;5069882;28;20805;-74
2022/09/21 02:54:05;;;;;;;3.27;1.50;;;;;;;;;;5070863;28;20449;-73
2022/09/21 02:56:32;;;;;;;3.00;1.37;;;;;;;;;;5070415;28;20450;-73
2022/09/21 02:59:01;;;;;;;2.03;1.50;;;;;;;;;;5070576;28;20457;-74
2022/09/21 03:01:29;;;;;;;2.57;2.00;;;;;;;;;;5064728;28;21093;-73
2022/09/21 03:03:56;;;;;;;3.60;1.30;;;;;;;;;;5070586;28;20447;-74
2022/09/21 03:06:25;;;;;;;1.60;1.40;;;;;;;;;;5070177;28;20454;-73
2022/09/21 03:08:52;;;;;;;2.63;1.40;;;;;;;;;;5070813;28;20802;-74
2022/09/21 03:11:19;;;;;;;2.53;1.60;;;;;;;;;;5070525;28;20457;-73
2022/09/21 03:13:47;;;;;;;3.60;1.63;;;;;;;;;;5070743;28;20457;-72
2022/09/21 03:16:15;;;;;;;3.00;2.00;;;;;;;;;;5070307;28;20465;-74
2022/09/21 03:18:43;;;;;;;6.20;2.00;;;;;;;;;;5070628;28;20508;-73
2022/09/21 03:21:11;;;;;;;4.43;1.43;;;;;;;;;;5070882;28;20484;-74
2022/09/21 03:23:39;;;;;;;3.23;1.63;;;;;;;;;;5070405;28;20453;-74
2022/09/21 03:26:07;;;;;;;6.33;2.40;;;;;;;;;;5070067;28;20464;-74
2022/09/21 03:28:34;;;;;;;4.70;1.83;;;;;;;;;;5069801;28;20583;-74
2022/09/21 03:31:01;;;;;;;2.00;1.50;;;;;;;;;;5070277;28;20457;-74
2022/09/21 03:33:28;;;;;;;3.03;1.60;;;;;;;;;;5070211;28;20458;-74
2022/09/21 03:35:55;;;;;;;2.90;2.00;;;;;;;;;;5070402;28;20456;-74
2022/09/21 03:38:23;;;;;;;3.60;1.80;;;;;;;;;;5070017;28;20454;-74
2022/09/21 03:40:53;;;;;;;2.67;1.80;;;;;;;;;;5070351;28;20487;-74
2022/09/21 03:43:20;;;;;;;1.87;1.37;;;;;;;;;;5070443;28;20447;-73
2022/09/21 03:45:48;;;;;;;1.73;1.40;;;;;;;;;;5069758;28;20458;-73
2022/09/21 03:48:16;;;;;;;3.23;1.70;;;;;;;;;;5070457;28;20445;-74
2022/09/21 03:50:43;;;;;;;3.37;2.30;;;;;;;;;;5070572;28;20471;-74
2022/09/21 03:53:10;;;;;;;3.37;1.73;;;;;;;;;;5064756;28;20450;-73
2022/09/21 03:55:37;;;;;;;3.03;1.87;;;;;;;;;;5069476;28;20543;-74
2022/09/21 03:58:06;;;;;;;1.90;1.47;;;;;;;;;;5070554;28;20620;-74
2022/09/21 04:00:33;;;;;;;2.80;1.73;;;;;;;;;;5069871;28;20491;-72
2022/09/21 04:03:00;;;;;;;4.00;2.10;;;;;;;;;;5069513;28;20456;-72
2022/09/21 04:05:28;;;;;;;7.70;2.70;;;;;;;;;;5068903;28;20440;-73
2022/09/21 04:07:56;;;;;;;2.53;2.23;;;;;;;;;;5061490;28;20464;-74
2022/09/21 04:10:28;;;;;;;3.73;2.00;;;;;;;;;;5069571;28;20462;-73
2022/09/21 04:12:58;;;;;;;6.50;2.43;;;;;;;;;;5073031;28;20449;-74
2022/09/21 04:15:28;;;;;;;6.27;2.20;;;;;;;;;;5073059;28;20457;-75
2022/09/21 04:17:55;;;;;;;3.53;2.53;;;;;;;;;;5073869;28;20451;-74
2022/09/21 04:20:23;;;;;;;6.00;2.17;;;;;;;;;;5073226;28;20481;-72
2022/09/21 04:22:50;;;;;;;6.10;2.53;;;;;;;;;;5073702;28;20460;-71
2022/09/21 04:25:17;;;;;;;3.70;2.03;;;;;;;;;;5072718;28;20457;-77
2022/09/21 04:27:45;;;;;;;5.90;1.93;;;;;;;;;;5073724;28;20840;-78
2022/09/21 04:30:12;;;;;;;3.63;2.67;;;;;;;;;;5072740;28;20448;-73
2022/09/21 04:32:41;;;;;;;3.10;2.60;;;;;;;;;;5073069;28;20540;-73
2022/09/21 04:35:09;;;;;;;3.93;2.30;;;;;;;;;;5073423;28;20446;-74
2022/09/21 04:37:36;;;;;;;3.60;1.80;;;;;;;;;;5072432;28;20499;-75
2022/09/21 04:40:04;;;;;;;5.33;3.47;;;;;;;;;;5073476;28;20449;-78
2022/09/21 04:42:31;;;;;;;2.73;2.27;;;;;;;;;;5073000;28;20845;-76
2022/09/21 04:44:58;;;;;;;4.57;2.43;;;;;;;;;;5072697;28;20461;-76
2022/09/21 04:47:25;;;;;;;3.93;2.60;;;;;;;;;;5072786;28;20463;-77
2022/09/21 04:49:54;;;;;;;4.17;2.60;;;;;;;;;;5073312;28;20812;-76
2022/09/21 04:52:21;;;;;;;5.37;2.33;;;;;;;;;;5071920;28;20935;-74
2022/09/21 04:54:48;;;;;;;6.30;2.47;;;;;;;;;;5073252;28;20446;-75
2022/09/21 04:57:16;;;;;;;4.70;2.47;;;;;;;;;;5073292;28;20467;-74
2022/09/21 04:59:43;;;;;;;5.43;2.57;;;;;;;;;;5073455;28;20467;-75
2022/09/21 05:02:11;;;;;;;3.20;2.17;;;;;;;;;;5073067;28;20789;-75
2022/09/21 05:04:38;;;;;;;5.40;2.10;;;;;;;;;;5072367;28;20885;-74
2022/09/21 05:07:06;;;;;;;7.63;2.30;;;;;;;;;;5073205;28;20475;-74
2022/09/21 05:12:18;;;;;;;3.87;2.37;;;;;;;;;;5072242;28;20430;-74
2022/09/21 05:14:45;;;;;;;4.57;2.53;;;;;;;;;;5073075;28;20448;-75
2022/09/21 05:17:12;;;;;;;2.67;2.33;;;;;;;;;;5073238;28;20803;-75
2022/09/21 05:19:40;;;;;;;3.90;2.63;;;;;;;;;;5072277;28;20448;-75
2022/09/21 05:22:08;;;;;;;3.33;1.87;;;;;;;;;;5072024;28;20829;-74
2022/09/21 05:24:35;;;;;;;5.90;2.20;;;;;;;;;;5070772;28;20452;-75
2022/09/21 05:27:02;;;;;;;2.87;2.23;;;;;;;;;;5072566;28;20492;-75
2022/09/21 05:29:30;;;;;;;4.10;2.63;;;;;;;;;;5071604;28;20467;-74
2022/09/21 05:32:01;;;;;;;9.77;2.97;;;;;;;;;;5072103;28;20451;-74
2022/09/21 05:34:34;;;;;;;6.20;2.50;;;;;;;;;;5072071;28;20450;-74
2022/09/21 05:37:04;;;;;;;4.83;3.13;;;;;;;;;;5072130;28;20448;-74
2022/09/21 05:39:33;;;;;;;3.33;2.17;;;;;;;;;;5071515;28;20445;-74
2022/09/21 05:42:00;;;;;;;3.43;2.90;;;;;;;;;;5071447;28;20508;-75
2022/09/21 05:44:27;;;;;;;3.80;2.93;;;;;;;;;;5071710;28;20459;-74
2022/09/21 05:46:59;;;;;;;7.60;3.10;;;;;;;;;;5072043;28;20451;-74
2022/09/21 05:49:31;;;;;;;5.10;3.83;;;;;;;;;;5071354;28;20451;-74
2022/09/21 05:52:03;;;;;;;3.53;2.47;;;;;;;;;;5071369;28;20441;-75
2022/09/21 05:54:39;;;;;;;4.30;3.47;;;;;;;;;;5071309;28;20469;-74
2022/09/21 05:57:11;;;;;;;4.73;3.60;;;;;;;;;;5072121;28;20465;-75
2022/09/21 05:59:49;;;;;;;2.80;2.50;;;;;;;;;;5071255;28;20456;-75
2022/09/21 06:02:21;;;;;;;6.27;3.20;;;;;;;;;;5071783;28;20495;-74
2022/09/21 06:04:49;;;;;;;4.40;2.70;;;;;;;;;;5072396;28;20440;-74
2022/09/21 06:07:16;;;;;;;5.30;3.63;;;;;;;;;;5072208;28;20444;-75
2022/09/21 06:09:44;;;;;;;7.50;3.80;;;;;;;;;;5072184;28;20455;-74
2022/09/21 06:12:11;;;;;;;7.40;3.70;;;;;;;;;;5071483;28;20455;-74
2022/09/21 06:14:39;;;;;;;7.00;3.50;;;;;;;;;;5071265;28;20467;-75
2022/09/21 06:17:06;;;;;;;6.20;3.73;;;;;;;;;;5071751;28;20454;-75
2022/09/21 06:19:33;;;;;;;7.10;3.93;;;;;;;;;;5070982;28;20460;-74
2022/09/21 06:22:00;;;;;;;6.30;3.80;;;;;;;;;;5071187;28;20495;-74
2022/09/21 06:24:27;;;;;;;5.30;3.53;;;;;;;;;;5071030;28;20453;-74
2022/09/21 06:26:56;;;;;;;5.13;3.20;;;;;;;;;;5071351;28;20491;-73
2022/09/21 06:29:23;;;;;;;4.60;3.30;;;;;;;;;;5070962;28;20454;-74
2022/09/21 06:31:50;;;;;;;5.73;3.83;;;;;;;;;;5071377;28;20820;-74
2022/09/21 06:34:18;;;;;;;6.10;4.10;;;;;;;;;;5070806;28;20445;-73
2022/09/21 06:36:45;;;;;;;5.50;3.77;;;;;;;;;;5071672;28;20440;-74
2022/09/21 06:39:12;;;;;;;6.83;4.37;;;;;;;;;;5071653;28;20853;-74
2022/09/21 06:41:39;;;;;;;6.60;3.90;;;;;;;;;;5070510;28;20483;-74
2022/09/21 06:44:08;;;;;;;4.63;4.13;;;;;;;;;;5071460;28;20463;-75
2022/09/21 06:46:35;;;;;;;5.43;4.83;;;;;;;;;;5070715;28;20444;-74
2022/09/21 06:49:02;;;;;;;7.73;3.40;;;;;;;;;;5071455;28;20446;-75
2022/09/21 06:51:29;;;;;;;7.43;4.30;;;;;;;;;;5070068;28;20958;-75
2022/09/21 06:53:56;;;;;;;4.90;4.20;;;;;;;;;;5071364;28;20458;-75
2022/09/21 06:56:23;;;;;;;7.90;4.10;;;;;;;;;;5070702;28;20504;-74
2022/09/21 06:58:51;;;;;;;6.20;4.63;;;;;;;;;;5071111;28;20930;-75
2022/09/21 07:01:21;;;;;;;7.00;4.10;;;;;;;;;;5069898;28;20477;-74
2022/09/21 07:03:50;;;;;;;17.40;5.43;;;;;;;;;;5071572;28;20460;-74
2022/09/21 07:06:17;;;;;;;4.67;3.63;;;;;;;;;;5057729;28;20443;-71
2022/09/21 07:08:45;;;;;;;5.87;4.30;;;;;;;;;;5071323;28;20488;-74
2022/09/21 07:11:12;;;;;;;6.57;5.00;;;;;;;;;;5070579;28;20441;-75
2022/09/21 07:13:39;;;;;;;7.80;4.50;;;;;;;;;;5070621;28;20455;-74
2022/09/21 07:16:06;;;;;;;6.80;4.60;;;;;;;;;;5071091;28;20450;-74
2022/09/21 07:18:34;;;;;;;5.77;4.00;;;;;;;;;;5070150;28;20450;-74
2022/09/21 07:21:03;;;;;;;8.47;4.13;;;;;;;;;;5070705;28;20481;-74
2022/09/21 07:23:30;;;;;;;6.03;4.47;;;;;;;;;;5070380;28;20491;-74
2022/09/21 07:26:01;;;;;;;7.73;4.60;;;;;;;;;;5071004;28;20458;-74
2022/09/21 07:28:28;;;;;;;7.27;4.47;;;;;;;;;;5070036;28;20844;-74
2022/09/21 07:30:56;;;;;;;7.00;4.87;;;;;;;;;;5070754;28;20462;-74
2022/09/21 07:33:24;;;;;;;8.07;4.60;;;;;;;;;;5070490;28;20454;-76
2022/09/21 07:35:55;;;;;;;7.43;4.40;;;;;;;;;;5070988;28;20539;-74
2022/09/21 07:38:22;;;;;;;5.63;4.00;;;;;;;;;;5070584;28;20492;-74
2022/09/21 07:40:49;;;;;;;8.37;4.47;;;;;;;;;;5070931;28;20809;-74
2022/09/21 07:43:16;;;;;;;4.30;3.90;;;;;;;;;;5070507;28;20490;-75
2022/09/21 07:45:44;;;;;;;8.40;4.83;;;;;;;;;;5070495;28;20761;-69
2022/09/21 07:48:11;;;;;;;6.13;4.70;;;;;;;;;;5073910;28;20446;-69
2022/09/21 07:50:38;;;;;;;7.00;5.23;;;;;;;;;;5074222;28;20856;-74
2022/09/21 07:53:06;;;;;;;5.93;4.03;;;;;;;;;;5074219;28;20454;-74
2022/09/21 07:55:34;;;;;;;7.00;4.73;;;;;;;;;;5074051;28;20453;-74
2022/09/21 08:00:45;;;;;;;6.60;4.00;;;;;;;;;;5074305;28;20430;-74
2022/09/21 08:03:13;;;;;;;5.50;3.97;;;;;;;;;;5073856;28;20487;-74
2022/09/21 08:05:40;;;;;;;6.53;4.33;;;;;;;;;;5073820;28;20787;-74
2022/09/21 08:08:08;;;;;;;7.00;4.60;;;;;;;;;;5074395;28;20456;-74
2022/09/21 08:10:36;;;;;;;6.43;4.63;;;;;;;;;;5073804;28;20437;-76
2022/09/21 08:13:03;;;;;;;7.83;3.97;;;;;;;;;;5073654;28;20940;-74
2022/09/21 08:15:30;;;;;;;6.20;3.63;;;;;;;;;;5073494;28;20444;-74
2022/09/21 08:17:57;;;;;;;4.80;3.30;;;;;;;;;;5074240;28;20452;-74
2022/09/21 08:20:24;;;;;;;6.17;3.17;;;;;;;;;;5073273;28;20947;-74
2022/09/21 08:22:52;;;;;;;26.13;4.13;;;;;;;;;;5073842;28;20480;-74
2022/09/21 08:25:21;;;;;;;4.53;3.37;;;;;;;;;;5073417;28;20449;-75
2022/09/21 08:27:48;;;;;;;9.63;4.20;;;;;;;;;;5073961;28;20513;-74
2022/09/21 08:30:15;;;;;;;6.80;3.70;;;;;;;;;;5073968;28;20782;-74
2022/09/21 08:32:42;;;;;;;7.07;3.37;;;;;;;;;;5073491;28;20959;-75
2022/09/21 08:35:09;;;;;;;4.60;3.40;;;;;;;;;;5073818;28;20450;-75
2022/09/21 08:37:38;;;;;;;3.60;3.13;;;;;;;;;;5073208;28;20868;-74
2022/09/21 08:40:06;;;;;;;6.77;3.20;;;;;;;;;;5073787;28;20441;-75
2022/09/21 08:42:40;;;;;;;3.40;2.43;;;;;;;;;;5072440;28;20512;-75
2022/09/21 08:45:12;;;;;;;3.87;2.90;;;;;;;;;;5073315;28;20456;-75
2022/09/21 08:47:42;;;;;;;5.60;3.00;;;;;;;;;;5073300;28;20477;-74
2022/09/21 08:50:20;;;;;;;2.90;2.10;;;;;;;;;;5073778;28;20445;-75
2022/09/21 08:52:47;;;;;;;7.37;2.47;;;;;;;;;;5073120;28;20525;-74
2022/09/21 08:55:17;;;;;;;2.70;2.33;;;;;;;;;;5073339;28;20925;-74
2022/09/21 08:57:46;;;;;;;3.77;2.33;;;;;;;;;;5073459;28;20446;-74
2022/09/21 09:00:15;;;;;;;4.03;2.40;;;;;;;;;;5073536;28;20456;-75
2022/09/21 09:02:50;;;;;;;10.93;2.60;;;;;;;;;;5072934;28;20834;-75
2022/09/21 09:05:23;;;;;;;2.90;2.00;;;;;;;;;;5073222;28;20441;-71
2022/09/21 09:08:06;;;;;;;2.43;1.90;;;;;;;;;;5073399;28;20438;-74
2022/09/21 09:10:37;;;;;;;3.03;2.27;;;;;;;;;;5072527;28;20479;-75
2022/09/21 09:13:10;;;;;;;3.80;1.87;;;;;;;;;;5072839;28;20794;-75
2022/09/21 09:15:57;;;;;;;2.50;1.57;;;;;;;;;;5072554;28;20457;-75
2022/09/21 09:18:29;;;;;;;1.87;1.70;;;;;;;;;;5072690;28;20450;-74
2022/09/21 09:20:58;;;;;;;5.70;2.90;;;;;;;;;;5059240;28;20921;-75
2022/09/21 09:23:27;;;;;;;5.07;2.20;;;;;;;;;;5072038;28;20996;-75
2022/09/21 09:25:55;;;;;;;2.30;2.10;;;;;;;;;;5073060;28;20504;-75
2022/09/21 09:28:27;;;;;;;2.40;2.20;;;;;;;;;;5072062;28;20840;-75
2022/09/21 09:30:57;;;;;;;4.40;1.97;;;;;;;;;;5072354;28;20450;-74
2022/09/21 09:33:26;;;;;;;2.90;2.07;;;;;;;;;;5072372;28;20450;-74
2022/09/21 09:35:56;;;;;;;2.90;1.70;;;;;;;;;;5072997;28;20793;-74
2022/09/21 09:38:26;;;;;;;2.43;1.97;;;;;;;;;;5072050;28;20985;-74
2022/09/21 09:41:01;;;;;;;3.03;1.90;;;;;;;;;;5072440;28;20571;-74
2022/09/21 09:43:37;;;;;;;3.60;1.83;;;;;;;;;;5072155;28;20469;-74
2022/09/21 09:46:06;;;;;;;1.80;1.53;;;;;;;;;;5072314;28;20795;-74
2022/09/21 09:48:38;;;;;;;4.00;1.77;;;;;;;;;;5072198;28;20449;-74
2022/09/21 09:51:05;;;;;;;6.23;2.40;;;;;;;;;;5072058;28;20445;-75
2022/09/21 09:53:34;;;;;;;3.80;2.50;;;;;;;;;;5071894;28;20456;-74
2022/09/21 09:56:02;;;;;;;2.47;1.77;;;;;;;;;;5072225;28;20556;-74
2022/09/21 09:58:36;;;;;;;1.93;1.73;;;;;;;;;;5072111;28;20441;-74
2022/09/21 10:01:03;;;;;;;1.90;1.30;;;;;;;;;;5071923;28;20434;-74
2022/09/21 10:03:30;;;;;;;3.10;1.90;;;;;;;;;;5071674;28;20956;-75
2022/09/21 10:05:58;;;;;;;3.07;1.50;;;;;;;;;;5071809;28;20453;-74
2022/09/21 10:08:41;;;;;;;3.07;1.50;;;;;;;;;;5071802;28;20452;-74
2022/09/21 10:11:09;;;;;;;4.30;1.60;;;;;;;;;;5071198;28;20438;-74
2022/09/21 10:13:40;;;;;;;1.73;1.43;;;;;;;;;;5071677;28;20812;-74
2022/09/21 10:16:12;;;;;;;3.40;1.40;;;;;;;;;;5072087;28;20446;-74
2022/09/21 10:18:39;;;;;;;2.33;1.97;;;;;;;;;;5071437;28;20476;-75
2022/09/21 10:21:07;;;;;;;1.63;1.10;;;;;;;;;;5071685;28;20455;-74
2022/09/21 10:23:35;;;;;;;3.43;1.17;;;;;;;;;;5070909;28;20477;-74
2022/09/21 10:26:04;;;;;;;1.17;1.00;;;;;;;;;;5071649;28;20757;-75
2022/09/21 10:28:31;;;;;;;1.80;0.87;;;;;;;;;;5070904;28;20837;-74
2022/09/21 10:31:10;;;;;;;2.13;1.63;;;;;;;;;;5070913;28;20464;-74
2022/09/21 10:33:46;;;;;;;2.87;1.23;;;;;;;;;;5070837;28;20458;-74
2022/09/21 10:36:25;;;;;;;1.33;0.97;;;;;;;;;;5071826;28;20456;-74
2022/09/21 10:38:52;;;;;;;1.37;1.10;;;;;;;;;;5059087;28;20458;-74
2022/09/21 10:41:19;;;;;;;1.80;1.23;;;;;;;;;;5070546;28;20453;-74
2022/09/21 10:43:48;;;;;;;1.03;0.83;;;;;;;;;;5071767;28;20489;-74
2022/09/21 10:46:17;;;;;;;6.00;1.10;;;;;;;;;;5071486;28;20453;-75
2022/09/21 10:48:45;;;;;;;1.30;1.20;;;;;;;;;;5071867;28;20454;-75
2022/09/21 10:51:22;;;;;;;2.70;1.10;;;;;;;;;;5071194;28;20452;-75
2022/09/21 10:53:49;;;;;;;1.93;1.30;;;;;;;;;;5071579;28;20472;-75
2022/09/21 10:56:18;;;;;;;1.70;0.90;;;;;;;;;;5071675;28;20460;-74
2022/09/21 10:59:00;;;;;;;1.13;0.73;;;;;;;;;;5071586;28;20442;-76
2022/09/21 11:01:29;;;;;;;1.13;1.03;;;;;;;;;;5069914;28;20442;-76
2022/09/21 11:04:00;;;;;;;1.20;0.90;;;;;;;;;;5071322;28;20496;-76
2022/09/21 11:06:30;;;;;;;6.40;1.77;;;;;;;;;;5070903;28;20774;-76
2022/09/21 11:08:59;;;;;;;3.77;1.10;;;;;;;;;;5071175;28;20549;-74
2022/09/21 11:11:36;;;;;;;3.70;1.10;;;;;;;;;;5070331;28;20453;-74
2022/09/21 11:14:07;;;;;;;1.67;1.00;;;;;;;;;;5071202;28;20920;-75
2022/09/21 11:16:41;;;;;;;1.07;0.73;;;;;;;;;;5070406;28;20952;-75
2022/09/21 11:19:12;;;;;;;1.73;0.90;;;;;;;;;;5071347;28;20449;-75
2022/09/21 11:21:42;;;;;;;1.10;0.83;;;;;;;;;;5070981;28;20449;-75
2022/09/21 11:24:13;;;;;;;3.47;1.47;;;;;;;;;;5075518;28;20485;-75
2022/09/21 11:26:43;;;;;;;1.47;0.80;;;;;;;;;;5074448;28;20480;-75
2022/09/21 11:29:12;;;;;;;1.50;1.27;;;;;;;;;;5075415;28;20433;-75
2022/09/21 11:31:57;;;;;;;3.33;1.17;;;;;;;;;;5073730;28;20541;-74
2022/09/21 11:34:41;;;;;;;1.40;1.23;;;;;;;;;;5064248;28;20885;-74
2022/09/21 11:37:14;;;;;;;1.30;1.00;;;;;;;;;;5074620;28;20445;-75
2022/09/21 11:39:49;;;;;;;3.93;1.00;;;;;;;;;;5074231;28;20448;-75
2022/09/21 11:42:23;;;;;;;2.10;1.03;;;;;;;;;;5074856;28;20461;-75
2022/09/21 11:44:54;;;;;;;1.70;0.90;;;;;;;;;;5074919;28;20442;-74
2022/09/21 11:47:34;;;;;;;1.40;1.20;;;;;;;;;;5074306;28;20449;-74
2022/09/21 11:50:07;;;;;;;1.63;1.00;;;;;;;;;;5074792;28;20460;-75
2022/09/21 11:52:41;;;;;;;1.93;1.00;;;;;;;;;;5073881;28;20452;-76
2022/09/21 11:55:23;;;;;;;0.83;0.77;;;;;;;;;;5061613;28;20442;-75
2022/09/21 11:57:54;;;;;;;1.10;0.77;;;;;;;;;;5074700;28;20901;-75
2022/09/21 12:00:22;;;;;;;1.33;0.90;;;;;;;;;;5074162;28;20458;-74
2022/09/21 12:03:01;;;;;;;2.10;0.70;;;;;;;;;;5074203;28;20481;-74
2022/09/21 12:05:32;;;;;;;2.10;1.20;;;;;;;;;;5073710;28;20861;-74
2022/09/21 12:08:07;;;;;;;1.63;0.90;;;;;;;;;;5074592;28;20504;-75
2022/09/21 12:10:39;;;;;;;1.20;0.70;;;;;;;;;;5073481;28;20445;-75
2022/09/21 12:13:08;;;;;;;1.77;1.10;;;;;;;;;;5074449;28;20453;-75
2022/09/21 12:15:39;;;;;;;1.00;0.70;;;;;;;;;;5073576;28;20453;-76
2022/09/21 12:18:09;;;;;;;1.60;0.97;;;;;;;;;;5074351;28;20910;-76
2022/09/21 12:20:42;;;;;;;0.97;0.83;;;;;;;;;;5072933;28;20940;-75
2022/09/21 12:23:13;;;;;;;1.40;1.00;;;;;;;;;;5074083;28;20478;-75
2022/09/21 12:25:42;;;;;;;1.90;0.83;;;;;;;;;;5060490;28;20460;-76
2022/09/21 12:28:13;;;;;;;1.17;0.90;;;;;;;;;;5074028;28;20981;-75
2022/09/21 12:30:42;;;;;;;1.63;0.50;;;;;;;;;;5072763;28;20444;-75
2022/09/21 12:33:15;;;;;;;1.17;0.70;;;;;;;;;;5073562;28;20453;-76
2022/09/21 12:35:45;;;;;;;2.00;0.87;;;;;;;;;;5074098;28;20441;-76
2022/09/21 12:38:15;;;;;;;1.10;0.70;;;;;;;;;;5073994;28;20453;-76
2022/09/21 12:40:48;;;;;;;1.63;0.70;;;;;;;;;;5073698;28;20499;-75
2022/09/21 12:43:20;;;;;;;1.13;0.90;;;;;;;;;;5074003;28;20577;-75
2022/09/21 12:45:51;;;;;;;0.90;0.73;;;;;;;;;;5073419;28;20446;-74
2022/09/21 12:48:23;;;;;;;1.33;0.60;;;;;;;;;;5073136;28;20445;-74
2022/09/21 12:50:54;;;;;;;1.50;0.90;;;;;;;;;;5073406;28;20448;-74
2022/09/21 12:53:24;;;;;;;0.70;0.50;;;;;;;;;;5073369;28;20503;-75
2022/09/21 12:56:00;;;;;;;1.80;0.70;;;;;;;;;;5073783;28;20470;-75
2022/09/21 12:58:44;;;;;;;0.63;0.50;;;;;;;;;;5073090;28;20806;-75
2022/09/21 13:01:19;;;;;;;1.00;0.63;;;;;;;;;;5072978;28;20434;-75
2022/09/21 13:03:53;;;;;;;1.20;0.73;;;;;;;;;;5073892;28;20469;-75
2022/09/21 13:06:36;;;;;;;1.03;0.50;;;;;;;;;;5073335;28;20491;-75
2022/09/21 13:09:04;;;;;;;0.97;0.60;;;;;;;;;;5073591;28;20445;-75
2022/09/21 13:11:32;;;;;;;2.00;0.67;;;;;;;;;;5072400;28;20529;-75
2022/09/21 13:14:00;;;;;;;4.33;1.00;;;;;;;;;;5073286;28;20450;-74
2022/09/21 13:16:29;;;;;;;1.00;0.73;;;;;;;;;;5072540;28;20438;-75
2022/09/21 13:18:59;;;;;;;0.70;0.40;;;;;;;;;;5073089;28;20441;-76
2022/09/21 13:21:28;;;;;;;1.27;0.93;;;;;;;;;;5072184;28;20496;-75
2022/09/21 13:23:57;;;;;;;0.90;0.80;;;;;;;;;;5072893;28;20837;-75
2022/09/21 13:26:36;;;;;;;0.70;0.50;;;;;;;;;;5072299;28;20449;-75
2022/09/21 13:29:05;;;;;;;1.00;0.60;;;;;;;;;;5073134;28;20438;-75
2022/09/21 13:31:43;;;;;;;0.73;0.50;;;;;;;;;;5072067;28;20456;-74
2022/09/21 13:34:21;;;;;;;0.60;0.57;;;;;;;;;;5073082;28;20457;-75
2022/09/21 13:37:13;;;;;;;1.07;0.83;;;;;;;;;;5073033;28;21100;-75
2022/09/21 13:39:45;;;;;;;1.63;1.40;;;;;;;;;;5072262;28;20442;-75
2022/09/21 13:42:31;;;;;;;0.90;0.70;;;;;;;;;;5072354;28;20477;-75
2022/09/21 13:44:58;;;;;;;0.97;0.60;;;;;;;;;;5071546;28;21092;-75
2022/09/21 13:47:29;;;;;;;1.57;0.80;;;;;;;;;;5072018;28;20445;-75
2022/09/21 13:49:56;;;;;;;3.23;1.60;;;;;;;;;;5072695;28;20441;-75
2022/09/21 13:52:32;;;;;;;2.40;1.47;;;;;;;;;;5071436;28;20499;-74
2022/09/21 13:55:02;;;;;;;1.13;0.63;;;;;;;;;;5072625;28;20803;-77
2022/09/21 13:57:33;;;;;;;1.03;0.80;;;;;;;;;;5072244;28;20456;-75
2022/09/21 14:00:05;;;;;;;1.17;0.80;;;;;;;;;;5072212;28;20481;-75
2022/09/21 14:02:33;;;;;;;1.43;1.07;;;;;;;;;;5071349;28;20791;-75
2022/09/21 14:05:03;;;;;;;1.70;1.00;;;;;;;;;;5072435;28;20482;-75
2022/09/21 14:07:31;;;;;;;1.03;0.93;;;;;;;;;;5071364;28;20960;-75
2022/09/21 14:09:59;;;;;;;1.20;0.70;;;;;;;;;;5071956;28;20452;-75
2022/09/21 14:12:32;;;;;;;1.10;0.77;;;;;;;;;;5071335;28;20472;-75
2022/09/21 14:15:18;;;;;;;1.63;0.90;;;;;;;;;;5072286;28;20454;-75
2022/09/21 14:17:45;;;;;;;2.00;0.93;;;;;;;;;;5062228;28;20454;-75
2022/09/21 14:20:27;;;;;;;2.00;1.20;;;;;;;;;;5072154;28;20448;-75
2022/09/21 14:23:09;;;;;;;0.93;0.83;;;;;;;;;;5071635;28;20453;-74
2022/09/21 14:25:52;;;;;;;1.13;0.80;;;;;;;;;;5070751;28;20659;-75
2022/09/21 14:28:29;;;;;;;1.60;0.73;;;;;;;;;;5071056;28;20485;-74
2022/09/21 14:30:58;;;;;;;1.90;0.60;;;;;;;;;;5071277;28;20447;-74
2022/09/21 14:33:40;;;;;;;1.00;0.53;;;;;;;;;;5071183;28;20529;-75
2022/09/21 14:36:09;;;;;;;1.13;0.70;;;;;;;;;;5071858;28;20450;-75
2022/09/21 14:38:42;;;;;;;1.23;0.93;;;;;;;;;;5071134;28;20733;-75
2022/09/21 14:41:10;;;;;;;1.03;0.80;;;;;;;;;;5071368;28;20441;-75
2022/09/21 14:43:41;;;;;;;1.03;0.80;;;;;;;;;;5070751;28;20489;-75
2022/09/21 14:46:27;;;;;;;1.20;0.70;;;;;;;;;;5071387;28;20518;-75
2022/09/21 14:49:02;;;;;;;2.20;1.00;;;;;;;;;;5071631;28;20476;-74
2022/09/21 14:51:37;;;;;;;0.90;0.70;;;;;;;;;;5070648;28;20450;-75
2022/09/21 14:54:12;;;;;;;1.17;0.90;;;;;;;;;;5072153;28;20464;-75
2022/09/21 14:56:50;;;;;;;1.40;0.80;;;;;;;;;;5057777;28;20865;-75
2022/09/21 14:59:34;;;;;;;1.03;0.73;;;;;;;;;;5070842;28;20442;-71
2022/09/21 15:02:03;;;;;;;2.00;1.30;;;;;;;;;;5070502;28;20495;-75
2022/09/21 15:04:31;;;;;;;1.50;0.80;;;;;;;;;;5070445;28;20481;-75
2022/09/21 15:12:46;;;;;;;1.00;0.87;;;;;;;;;;5071371;28;20431;-76